Rogers, Arkansas
Current Conditions -  °F | °C
As of 11:57 AM on Saturday 20 Dec 2014 (Local Time) from KROG Reporting Station
Overcast Overcast  
Wind Chill: 39°   Ceiling: 1600
Heat Index: 42°   Visibility: 10mi
Dew Point: 36°   Wind: 5mph
Humidity: 79%   Direction: 130°SE
Pressure: 30.21"   Gusts: NA
Location:  36.33°N, 94.12°W
Report Text: KROG 201757Z 13004KT 10SM OVC016 06/02 A3021 RMK AO2 SLP235 T00560022 10056 20039 58008
Loading
Personal Weather Stations






























Interactive Weather Map New forecast layout! Learn more

10-Day Weather Forecast

Advertisements
Track Severe Weather on mobile